Maersk Vallvik — 9V8839 — position and weather

sailwx.info

Track history (hours):
 
Tides and Currents Weather Stations Pressure Air Temp Water Temp Dewpoint Dewpoint Depression Visibility Wind Speed Wind Dir Waves Ship Positions

Maersk Vallvik

Last reported at 2015-Apr-29 14:24 UTC. Time now 2015-May-06 13:31 UTC.
Position N 26°22' W 078°18'.

Length 180 m; draft 8.6 m.

Type: Ship. MMSI: 564837000.

Date/timePositionNaut miles runAvg speedWind from/ knotsBaromVisibWave heightAir tempDewpointWater temp
2015-Apr-29 14:24N 26°22' W 078°18'1 1.0
2015-Apr-29 13:33N 26°21' W 078°18'6 0.1
2015-Apr-27 23:10N 26°18' W 078°23'1 0.8
2015-Apr-27 22:11N 26°19' W 078°23'1 0.7
2015-Apr-27 21:29N 26°19' W 078°23'1 0.7
2015-Apr-27 20:33N 26°20' W 078°23'1 0.6
2015-Apr-27 19:33N 26°20' W 078°23'1 0.6
2015-Apr-27 18:33N 26°21' W 078°23'1 0.6
2015-Apr-27 17:33N 26°21' W 078°23'1 0.8
2015-Apr-27 16:32N 26°22' W 078°24'2 0.9
2015-Apr-27 14:27N 26°23' W 078°26'1 0.8
2015-Apr-27 13:28N 26°23' W 078°26'1 0.6
2015-Apr-27 12:34N 26°23' W 078°27'0 0.4
2015-Apr-27 11:34N 26°23' W 078°28'0 0.4
2015-Apr-27 10:34N 26°23' W 078°28'0 0.3
2015-Apr-27 09:34N 26°23' W 078°28'0 0.3
2015-Apr-27 08:34N 26°23' W 078°28'0 0.2
2015-Apr-27 07:33N 26°22' W 078°28'0 0.1
2015-Apr-27 05:23N 26°22' W 078°29'0 0.1
2015-Apr-27 04:33N 26°22' W 078°29'0 0.3
2015-Apr-27 03:28N 26°22' W 078°28'2 0.5
2015-Apr-26 23:31N 26°22' W 078°26'1 0.6
2015-Apr-26 22:27N 26°22' W 078°25'0 0.4
2015-Apr-26 21:34N 26°22' W 078°25'1 0.7
2015-Apr-26 20:29N 26°23' W 078°25'8 8.5
2015-Apr-26 19:33N 26°22' W 078°16'0 0.4
2015-Apr-26 18:33N 26°23' W 078°16'0 0.4
2015-Apr-26 17:33N 26°23' W 078°17'1 0.6
2015-Apr-26 16:33N 26°23' W 078°17'1 0.6
2015-Apr-26 15:33N 26°24' W 078°18'1 0.8
2015-Apr-26 14:32N 26°24' W 078°18'1 0.9
2015-Apr-26 13:33N 26°25' W 078°19'1 0.9
2015-Apr-26 12:26N 26°25' W 078°20'1 0.8
2015-Apr-26 11:33N 26°25' W 078°21'1 0.7
2015-Apr-26 10:33N 26°26' W 078°21'1 0.6
2015-Apr-26 09:33N 26°26' W 078°22'2 0.2
2015-Apr-26 03:05N 26°26' W 078°24'0 0.3
2015-Apr-26 02:32N 26°26' W 078°24'0 0.3
2015-Apr-26 01:32N 26°26' W 078°24'1 0.2
2015-Apr-25 19:21N 26°24' W 078°24'8 0.9
2015-Apr-25 09:33N 26°21' W 078°33'6 5.1
2015-Apr-25 08:24N 26°25' W 078°38'7 0.8
2015-Apr-25 00:15N 26°19' W 078°41'0 0.5
2015-Apr-24 23:22N 26°20' W 078°40'4 0.2
2015-Apr-24 05:31N 26°23' W 078°37'1 0.6
2015-Apr-24 04:31N 26°23' W 078°38'299 7.5
2015-Apr-22 12:30N 31°19' W 079°20'144 4.1
2015-Apr-21 01:13N 33°15' W 077°38'14 8.5
2015-Apr-20 23:31N 33°23' W 077°24'8 8.2
2015-Apr-20 22:33N 33°28' W 077°16'17 8.3
2015-Apr-20 20:30N 33°38' W 076°60'2110.0
2015-Apr-20 18:21N 33°50' W 076°38'  
Track history (hours):
 
Tides and Currents Weather Stations Pressure Air Temp Water Temp Dewpoint Dewpoint Depression Visibility Wind Speed Wind Dir Waves Ship Positions

Maersk Vallvik

Last reported at 2015-Apr-29 14:24 UTC. Time now 2015-May-06 13:31 UTC.
Position N 26°22' W 078°18'.

Length 180 m; draft 8.6 m.

Type: Ship. MMSI: 564837000.

Date/timePositionNaut miles runAvg speedWind from/ knotsBaromVisibWave heightAir tempDewpointWater temp
2015-Apr-29 14:24N 26°22' W 078°18'1 1.0
2015-Apr-29 13:33N 26°21' W 078°18'6 0.1
2015-Apr-27 23:10N 26°18' W 078°23'1 0.8
2015-Apr-27 22:11N 26°19' W 078°23'1 0.7
2015-Apr-27 21:29N 26°19' W 078°23'1 0.7
2015-Apr-27 20:33N 26°20' W 078°23'1 0.6
2015-Apr-27 19:33N 26°20' W 078°23'1 0.6
2015-Apr-27 18:33N 26°21' W 078°23'1 0.6
2015-Apr-27 17:33N 26°21' W 078°23'1 0.8
2015-Apr-27 16:32N 26°22' W 078°24'2 0.9
2015-Apr-27 14:27N 26°23' W 078°26'1 0.8
2015-Apr-27 13:28N 26°23' W 078°26'1 0.6
2015-Apr-27 12:34N 26°23' W 078°27'0 0.4
2015-Apr-27 11:34N 26°23' W 078°28'0 0.4
2015-Apr-27 10:34N 26°23' W 078°28'0 0.3
2015-Apr-27 09:34N 26°23' W 078°28'0 0.3
2015-Apr-27 08:34N 26°23' W 078°28'0 0.2
2015-Apr-27 07:33N 26°22' W 078°28'0 0.1
2015-Apr-27 05:23N 26°22' W 078°29'0 0.1
2015-Apr-27 04:33N 26°22' W 078°29'0 0.3
2015-Apr-27 03:28N 26°22' W 078°28'2 0.5
2015-Apr-26 23:31N 26°22' W 078°26'1 0.6
2015-Apr-26 22:27N 26°22' W 078°25'0 0.4
2015-Apr-26 21:34N 26°22' W 078°25'1 0.7
2015-Apr-26 20:29N 26°23' W 078°25'8 8.5
2015-Apr-26 19:33N 26°22' W 078°16'0 0.4
2015-Apr-26 18:33N 26°23' W 078°16'0 0.4
2015-Apr-26 17:33N 26°23' W 078°17'1 0.6
2015-Apr-26 16:33N 26°23' W 078°17'1 0.6
2015-Apr-26 15:33N 26°24' W 078°18'1 0.8
2015-Apr-26 14:32N 26°24' W 078°18'1 0.9
2015-Apr-26 13:33N 26°25' W 078°19'1 0.9
2015-Apr-26 12:26N 26°25' W 078°20'1 0.8
2015-Apr-26 11:33N 26°25' W 078°21'1 0.7
2015-Apr-26 10:33N 26°26' W 078°21'1 0.6
2015-Apr-26 09:33N 26°26' W 078°22'2 0.2
2015-Apr-26 03:05N 26°26' W 078°24'0 0.3
2015-Apr-26 02:32N 26°26' W 078°24'0 0.3
2015-Apr-26 01:32N 26°26' W 078°24'1 0.2
2015-Apr-25 19:21N 26°24' W 078°24'8 0.9
2015-Apr-25 09:33N 26°21' W 078°33'6 5.1
2015-Apr-25 08:24N 26°25' W 078°38'7 0.8
2015-Apr-25 00:15N 26°19' W 078°41'0 0.5
2015-Apr-24 23:22N 26°20' W 078°40'4 0.2
2015-Apr-24 05:31N 26°23' W 078°37'1 0.6
2015-Apr-24 04:31N 26°23' W 078°38'299 7.5
2015-Apr-22 12:30N 31°19' W 079°20'144 4.1
2015-Apr-21 01:13N 33°15' W 077°38'14 8.5
2015-Apr-20 23:31N 33°23' W 077°24'8 8.2
2015-Apr-20 22:33N 33°28' W 077°16'17 8.3
2015-Apr-20 20:30N 33°38' W 076°60'2110.0
2015-Apr-20 18:21N 33°50' W 076°38'  

Dump ship's entire track history